sensor_id;sensor_type;location;lat;lon;timestamp;temperature;humidity
71096;DHT22;58753;49.440;11.126;2022-12-10T00:01:17;-1.29;99.99
71096;DHT22;58753;49.440;11.126;2022-12-10T00:03:43;-1.32;99.99
71096;DHT22;58753;49.440;11.126;2022-12-10T00:06:30;-1.35;99.99
71096;DHT22;58753;49.440;11.126;2022-12-10T00:08:56;-1.39;99.99
71096;DHT22;58753;49.440;11.126;2022-12-10T00:11:23;-1.46;99.99
71096;DHT22;58753;49.440;11.126;2022-12-10T00:13:49;-1.52;99.99
71096;DHT22;58753;49.440;11.126;2022-12-10T00:16:16;-1.57;99.99
71096;DHT22;58753;49.440;11.126;2022-12-10T00:18:42;-1.57;99.99
71096;DHT22;58753;49.440;11.126;2022-12-10T00:21:11;-1.60;99.99
71096;DHT22;58753;49.440;11.126;2022-12-10T00:23:38;-1.63;99.99
71096;DHT22;58753;49.440;11.126;2022-12-10T00:26:12;-1.70;99.99
71096;DHT22;58753;49.440;11.126;2022-12-10T00:28:39;-1.79;99.99
71096;DHT22;58753;49.440;11.126;2022-12-10T00:31:10;-1.80;99.99
71096;DHT22;58753;49.440;11.126;2022-12-10T00:33:36;-1.87;99.99
71096;DHT22;58753;49.440;11.126;2022-12-10T00:36:04;-1.90;99.99
71096;DHT22;58753;49.440;11.126;2022-12-10T00:38:29;-1.93;99.99
71096;DHT22;58753;49.440;11.126;2022-12-10T00:40:55;-1.97;99.99
71096;DHT22;58753;49.440;11.126;2022-12-10T00:43:20;-1.98;99.99
71096;DHT22;58753;49.440;11.126;2022-12-10T00:45:46;-1.98;99.99
71096;DHT22;58753;49.440;11.126;2022-12-10T00:48:11;-1.95;99.99
71096;DHT22;58753;49.440;11.126;2022-12-10T00:50:36;-1.95;99.99
71096;DHT22;58753;49.440;11.126;2022-12-10T00:53:02;-1.94;99.99
71096;DHT22;58753;49.440;11.126;2022-12-10T00:55:27;-1.93;99.99
71096;DHT22;58753;49.440;11.126;2022-12-10T00:57:52;-1.93;99.99
71096;DHT22;58753;49.440;11.126;2022-12-10T01:00:18;-1.94;99.99
71096;DHT22;58753;49.440;11.126;2022-12-10T01:02:43;-1.89;99.99
71096;DHT22;58753;49.440;11.126;2022-12-10T01:05:08;-1.89;99.99
71096;DHT22;58753;49.440;11.126;2022-12-10T01:07:34;-1.89;99.99
71096;DHT22;58753;49.440;11.126;2022-12-10T01:09:59;-1.83;99.99
71096;DHT22;58753;49.440;11.126;2022-12-10T01:12:24;-1.79;99.99
71096;DHT22;58753;49.440;11.126;2022-12-10T01:14:50;-1.76;99.99
71096;DHT22;58753;49.440;11.126;2022-12-10T01:17:15;-1.77;99.99
71096;DHT22;58753;49.440;11.126;2022-12-10T01:19:40;-1.74;99.99
71096;DHT22;58753;49.440;11.126;2022-12-10T01:22:06;-1.70;99.99
71096;DHT22;58753;49.440;11.126;2022-12-10T01:24:31;-1.69;99.99
71096;DHT22;58753;49.440;11.126;2022-12-10T01:26:57;-1.67;99.99
71096;DHT22;58753;49.440;11.126;2022-12-10T01:29:23;-1.63;99.99
71096;DHT22;58753;49.440;11.126;2022-12-10T01:31:54;-1.59;99.99
71096;DHT22;58753;49.440;11.126;2022-12-10T01:34:20;-1.57;99.99
71096;DHT22;58753;49.440;11.126;2022-12-10T01:36:49;-1.59;99.99
71096;DHT22;58753;49.440;11.126;2022-12-10T01:39:16;-1.59;99.99
71096;DHT22;58753;49.440;11.126;2022-12-10T01:41:51;-1.57;99.99
71096;DHT22;58753;49.440;11.126;2022-12-10T01:46:46;-1.55;99.99
71096;DHT22;58753;49.440;11.126;2022-12-10T01:49:23;-1.53;99.99
71096;DHT22;58753;49.440;11.126;2022-12-10T01:51:51;-1.49;99.99
71096;DHT22;58753;49.440;11.126;2022-12-10T01:54:24;-1.43;99.99
71096;DHT22;58753;49.440;11.126;2022-12-10T01:57:00;-1.40;99.99
71096;DHT22;58753;49.440;11.126;2022-12-10T01:59:27;-1.38;99.99
71096;DHT22;58753;49.440;11.126;2022-12-10T02:02:30;-1.36;99.99
71096;DHT22;58753;49.440;11.126;2022-12-10T02:13:53;-1.28;99.99
71096;DHT22;58753;49.440;11.126;2022-12-10T02:16:26;-1.25;99.99
71096;DHT22;58753;49.440;11.126;2022-12-10T02:19:13;-1.28;99.99
71096;DHT22;58753;49.440;11.126;2022-12-10T02:21:41;-1.31;99.99
71096;DHT22;58753;49.440;11.126;2022-12-10T02:24:14;-1.32;99.99
71096;DHT22;58753;49.440;11.126;2022-12-10T02:29:27;-1.26;99.99
71096;DHT22;58753;49.440;11.126;2022-12-10T02:34:30;-1.26;99.99
71096;DHT22;58753;49.440;11.126;2022-12-10T02:37:00;-1.29;99.99
71096;DHT22;58753;49.440;11.126;2022-12-10T02:39:32;-1.31;99.99
71096;DHT22;58753;49.440;11.126;2022-12-10T02:42:00;-1.28;99.99
71096;DHT22;58753;49.440;11.126;2022-12-10T02:44:28;-1.25;99.99
71096;DHT22;58753;49.440;11.126;2022-12-10T02:46:56;-1.22;99.99
71096;DHT22;58753;49.440;11.126;2022-12-10T02:49:24;-1.26;99.99
71096;DHT22;58753;49.440;11.126;2022-12-10T02:51:50;-1.25;99.99
71096;DHT22;58753;49.440;11.126;2022-12-10T02:57:27;-1.20;99.99
71096;DHT22;58753;49.440;11.126;2022-12-10T03:00:10;-1.19;99.99
71096;DHT22;58753;49.440;11.126;2022-12-10T03:03:11;-1.19;99.99
71096;DHT22;58753;49.440;11.126;2022-12-10T03:05:47;-1.15;99.99
71096;DHT22;58753;49.440;11.126;2022-12-10T03:08:18;-1.19;99.99
71096;DHT22;58753;49.440;11.126;2022-12-10T03:11:01;-1.15;99.99
71096;DHT22;58753;49.440;11.126;2022-12-10T03:13:40;-1.18;99.99
71096;DHT22;58753;49.440;11.126;2022-12-10T03:16:09;-1.18;99.99
71096;DHT22;58753;49.440;11.126;2022-12-10T03:18:35;-1.16;99.99
71096;DHT22;58753;49.440;11.126;2022-12-10T03:21:04;-1.13;99.99
71096;DHT22;58753;49.440;11.126;2022-12-10T03:23:33;-1.15;99.99
71096;DHT22;58753;49.440;11.126;2022-12-10T03:26:00;-1.13;99.99
71096;DHT22;58753;49.440;11.126;2022-12-10T03:28:26;-1.16;99.99
71096;DHT22;58753;49.440;11.126;2022-12-10T03:30:52;-1.13;99.99
71096;DHT22;58753;49.440;11.126;2022-12-10T03:33:20;-1.16;99.99
71096;DHT22;58753;49.440;11.126;2022-12-10T03:35:46;-1.13;99.99
71096;DHT22;58753;49.440;11.126;2022-12-10T03:38:12;-1.22;99.99
71096;DHT22;58753;49.440;11.126;2022-12-10T03:40:38;-1.25;99.99
71096;DHT22;58753;49.440;11.126;2022-12-10T03:43:03;-1.26;99.99
71096;DHT22;58753;49.440;11.126;2022-12-10T03:45:29;-1.29;99.99
71096;DHT22;58753;49.440;11.126;2022-12-10T03:47:54;-1.32;99.99
71096;DHT22;58753;49.440;11.126;2022-12-10T03:50:19;-1.34;99.99
71096;DHT22;58753;49.440;11.126;2022-12-10T03:52:45;-1.31;99.99
71096;DHT22;58753;49.440;11.126;2022-12-10T03:55:10;-1.40;99.99
71096;DHT22;58753;49.440;11.126;2022-12-10T03:57:36;-1.35;99.99
71096;DHT22;58753;49.440;11.126;2022-12-10T04:00:04;-1.34;99.99
71096;DHT22;58753;49.440;11.126;2022-12-10T04:02:30;-1.32;99.99
71096;DHT22;58753;49.440;11.126;2022-12-10T04:04:55;-1.34;99.99
71096;DHT22;58753;49.440;11.126;2022-12-10T04:07:20;-1.34;99.99
71096;DHT22;58753;49.440;11.126;2022-12-10T04:09:46;-1.35;99.99
71096;DHT22;58753;49.440;11.126;2022-12-10T04:12:11;-1.39;99.99
71096;DHT22;58753;49.440;11.126;2022-12-10T04:14:36;-1.45;99.99
71096;DHT22;58753;49.440;11.126;2022-12-10T04:17:20;-1.45;99.99
71096;DHT22;58753;49.440;11.126;2022-12-10T04:19:46;-1.42;99.99
71096;DHT22;58753;49.440;11.126;2022-12-10T04:22:11;-1.40;99.99
71096;DHT22;58753;49.440;11.126;2022-12-10T04:24:55;-1.38;99.99
71096;DHT22;58753;49.440;11.126;2022-12-10T04:27:39;-1.40;99.99
71096;DHT22;58753;49.440;11.126;2022-12-10T04:30:08;-1.36;99.99
71096;DHT22;58753;49.440;11.126;2022-12-10T04:32:34;-1.35;99.99
71096;DHT22;58753;49.440;11.126;2022-12-10T04:34:59;-1.35;99.99
71096;DHT22;58753;49.440;11.126;2022-12-10T04:37:26;-1.32;99.99
71096;DHT22;58753;49.440;11.126;2022-12-10T04:39:51;-1.35;99.99
71096;DHT22;58753;49.440;11.126;2022-12-10T04:42:18;-1.38;99.99
71096;DHT22;58753;49.440;11.126;2022-12-10T04:44:43;-1.42;99.99
71096;DHT22;58753;49.440;11.126;2022-12-10T04:47:10;-1.39;99.99
71096;DHT22;58753;49.440;11.126;2022-12-10T04:49:36;-1.40;99.99
71096;DHT22;58753;49.440;11.126;2022-12-10T04:52:02;-1.46;99.99
71096;DHT22;58753;49.440;11.126;2022-12-10T04:54:28;-1.46;99.99
71096;DHT22;58753;49.440;11.126;2022-12-10T04:56:54;-1.46;99.99
71096;DHT22;58753;49.440;11.126;2022-12-10T04:59:19;-1.45;99.99
71096;DHT22;58753;49.440;11.126;2022-12-10T05:01:45;-1.42;99.99
71096;DHT22;58753;49.440;11.126;2022-12-10T05:04:12;-1.43;99.99
71096;DHT22;58753;49.440;11.126;2022-12-10T05:06:38;-1.46;99.99
71096;DHT22;58753;49.440;11.126;2022-12-10T05:09:04;-1.46;99.99
71096;DHT22;58753;49.440;11.126;2022-12-10T05:11:31;-1.52;99.99
71096;DHT22;58753;49.440;11.126;2022-12-10T05:13:57;-1.50;99.99
71096;DHT22;58753;49.440;11.126;2022-12-10T05:16:24;-1.53;99.99
71096;DHT22;58753;49.440;11.126;2022-12-10T05:18:50;-1.50;99.99
71096;DHT22;58753;49.440;11.126;2022-12-10T05:21:17;-1.53;99.99
71096;DHT22;58753;49.440;11.126;2022-12-10T05:23:46;-1.52;99.99
71096;DHT22;58753;49.440;11.126;2022-12-10T05:26:17;-1.55;99.99
71096;DHT22;58753;49.440;11.126;2022-12-10T05:28:52;-1.59;99.99
71096;DHT22;58753;49.440;11.126;2022-12-10T05:31:26;-1.63;99.99
71096;DHT22;58753;49.440;11.126;2022-12-10T05:33:53;-1.59;99.99
71096;DHT22;58753;49.440;11.126;2022-12-10T05:36:23;-1.57;99.99
71096;DHT22;58753;49.440;11.126;2022-12-10T05:38:49;-1.59;99.99
71096;DHT22;58753;49.440;11.126;2022-12-10T05:41:19;-1.57;99.99
71096;DHT22;58753;49.440;11.126;2022-12-10T05:43:46;-1.66;99.99
71096;DHT22;58753;49.440;11.126;2022-12-10T05:46:14;-1.60;99.99
71096;DHT22;58753;49.440;11.126;2022-12-10T05:48:39;-1.56;99.99
71096;DHT22;58753;49.440;11.126;2022-12-10T05:51:08;-1.57;99.99
71096;DHT22;58753;49.440;11.126;2022-12-10T05:53:35;-1.55;99.99
71096;DHT22;58753;49.440;11.126;2022-12-10T05:56:03;-1.56;99.99
71096;DHT22;58753;49.440;11.126;2022-12-10T05:58:29;-1.57;99.99
71096;DHT22;58753;49.440;11.126;2022-12-10T06:00:56;-1.56;99.99
71096;DHT22;58753;49.440;11.126;2022-12-10T06:03:22;-1.56;99.99
71096;DHT22;58753;49.440;11.126;2022-12-10T06:05:47;-1.53;99.99
71096;DHT22;58753;49.440;11.126;2022-12-10T06:08:13;-1.55;99.99
71096;DHT22;58753;49.440;11.126;2022-12-10T06:10:38;-1.55;99.99
71096;DHT22;58753;49.440;11.126;2022-12-10T06:13:04;-1.52;99.99
71096;DHT22;58753;49.440;11.126;2022-12-10T06:15:31;-1.50;99.99
71096;DHT22;58753;49.440;11.126;2022-12-10T06:17:58;-1.49;99.99
71096;DHT22;58753;49.440;11.126;2022-12-10T06:20:24;-1.53;99.99
71096;DHT22;58753;49.440;11.126;2022-12-10T06:22:50;-1.50;99.99
71096;DHT22;58753;49.440;11.126;2022-12-10T06:25:15;-1.49;99.99
71096;DHT22;58753;49.440;11.126;2022-12-10T06:27:41;-1.47;99.99
71096;DHT22;58753;49.440;11.126;2022-12-10T06:30:06;-1.46;99.99
71096;DHT22;58753;49.440;11.126;2022-12-10T06:32:32;-1.47;99.99
71096;DHT22;58753;49.440;11.126;2022-12-10T06:34:58;-1.49;99.99
71096;DHT22;58753;49.440;11.126;2022-12-10T06:37:23;-1.50;99.99
71096;DHT22;58753;49.440;11.126;2022-12-10T06:39:52;-1.47;99.99
71096;DHT22;58753;49.440;11.126;2022-12-10T06:42:18;-1.50;99.99
71096;DHT22;58753;49.440;11.126;2022-12-10T06:44:44;-1.52;99.99
71096;DHT22;58753;49.440;11.126;2022-12-10T06:47:09;-1.52;99.99
71096;DHT22;58753;49.440;11.126;2022-12-10T06:49:35;-1.50;99.99
71096;DHT22;58753;49.440;11.126;2022-12-10T06:52:00;-1.50;99.99
71096;DHT22;58753;49.440;11.126;2022-12-10T06:54:26;-1.50;99.99
71096;DHT22;58753;49.440;11.126;2022-12-10T06:56:51;-1.53;99.99
71096;DHT22;58753;49.440;11.126;2022-12-10T06:59:16;-1.50;99.99
71096;DHT22;58753;49.440;11.126;2022-12-10T07:01:42;-1.50;99.99
71096;DHT22;58753;49.440;11.126;2022-12-10T07:04:08;-1.52;99.99
71096;DHT22;58753;49.440;11.126;2022-12-10T07:06:33;-1.55;99.99
71096;DHT22;58753;49.440;11.126;2022-12-10T07:08:59;-1.55;99.99
71096;DHT22;58753;49.440;11.126;2022-12-10T07:11:25;-1.56;99.99
71096;DHT22;58753;49.440;11.126;2022-12-10T07:13:51;-1.55;99.99
71096;DHT22;58753;49.440;11.126;2022-12-10T07:16:19;-1.59;99.99
71096;DHT22;58753;49.440;11.126;2022-12-10T07:18:45;-1.60;99.99
71096;DHT22;58753;49.440;11.126;2022-12-10T07:21:23;-1.63;99.99
71096;DHT22;58753;49.440;11.126;2022-12-10T07:23:50;-1.67;99.99
71096;DHT22;58753;49.440;11.126;2022-12-10T07:26:15;-1.70;99.99
71096;DHT22;58753;49.440;11.126;2022-12-10T07:28:41;-1.74;99.99
71096;DHT22;58753;49.440;11.126;2022-12-10T07:31:08;-1.74;99.99
71096;DHT22;58753;49.440;11.126;2022-12-10T07:33:34;-1.79;99.99
71096;DHT22;58753;49.440;11.126;2022-12-10T07:36:07;-1.80;99.99
71096;DHT22;58753;49.440;11.126;2022-12-10T07:38:33;-1.81;99.99
71096;DHT22;58753;49.440;11.126;2022-12-10T07:41:03;-1.79;99.99
71096;DHT22;58753;49.440;11.126;2022-12-10T07:43:28;-1.74;99.99
71096;DHT22;58753;49.440;11.126;2022-12-10T07:45:54;-1.73;99.99
71096;DHT22;58753;49.440;11.126;2022-12-10T07:48:20;-1.69;99.99
71096;DHT22;58753;49.440;11.126;2022-12-10T07:50:45;-1.64;99.99
71096;DHT22;58753;49.440;11.126;2022-12-10T07:53:11;-1.60;99.99
71096;DHT22;58753;49.440;11.126;2022-12-10T07:55:36;-1.57;99.99
71096;DHT22;58753;49.440;11.126;2022-12-10T07:58:03;-1.55;99.99
71096;DHT22;58753;49.440;11.126;2022-12-10T08:00:28;-1.47;99.99
71096;DHT22;58753;49.440;11.126;2022-12-10T08:02:53;-1.46;99.99
71096;DHT22;58753;49.440;11.126;2022-12-10T08:05:19;-1.43;99.99
71096;DHT22;58753;49.440;11.126;2022-12-10T08:07:45;-1.40;99.99
71096;DHT22;58753;49.440;11.126;2022-12-10T08:10:10;-1.40;99.99
71096;DHT22;58753;49.440;11.126;2022-12-10T08:12:35;-1.38;99.99
71096;DHT22;58753;49.440;11.126;2022-12-10T08:15:01;-1.34;99.99
71096;DHT22;58753;49.440;11.126;2022-12-10T08:17:27;-1.29;99.99
71096;DHT22;58753;49.440;11.126;2022-12-10T08:19:53;-1.26;99.99
71096;DHT22;58753;49.440;11.126;2022-12-10T08:22:20;-1.22;99.99
71096;DHT22;58753;49.440;11.126;2022-12-10T08:24:45;-1.20;99.99
71096;DHT22;58753;49.440;11.126;2022-12-10T08:27:11;-1.25;99.99
71096;DHT22;58753;49.440;11.126;2022-12-10T08:29:36;-1.26;99.99
71096;DHT22;58753;49.440;11.126;2022-12-10T08:32:02;-1.24;99.99
71096;DHT22;58753;49.440;11.126;2022-12-10T08:34:27;-1.20;99.99
71096;DHT22;58753;49.440;11.126;2022-12-10T08:36:53;-1.18;99.99
71096;DHT22;58753;49.440;11.126;2022-12-10T08:39:18;-1.15;99.99
71096;DHT22;58753;49.440;11.126;2022-12-10T08:41:44;-1.13;99.99
71096;DHT22;58753;49.440;11.126;2022-12-10T08:44:11;-1.15;99.99
71096;DHT22;58753;49.440;11.126;2022-12-10T08:46:36;-1.13;99.99
71096;DHT22;58753;49.440;11.126;2022-12-10T08:49:03;-1.12;99.99
71096;DHT22;58753;49.440;11.126;2022-12-10T08:51:28;-1.08;99.99
71096;DHT22;58753;49.440;11.126;2022-12-10T08:53:54;-1.08;99.99
71096;DHT22;58753;49.440;11.126;2022-12-10T08:56:20;-1.06;99.99
71096;DHT22;58753;49.440;11.126;2022-12-10T08:58:45;-1.05;99.99
71096;DHT22;58753;49.440;11.126;2022-12-10T09:01:14;-0.99;99.99
71096;DHT22;58753;49.440;11.126;2022-12-10T09:03:40;-1.04;99.99
71096;DHT22;58753;49.440;11.126;2022-12-10T09:06:10;-0.99;99.99
71096;DHT22;58753;49.440;11.126;2022-12-10T09:08:36;-0.96;99.99
71096;DHT22;58753;49.440;11.126;2022-12-10T09:11:14;-0.92;99.99
71096;DHT22;58753;49.440;11.126;2022-12-10T09:13:39;-0.91;99.99
71096;DHT22;58753;49.440;11.126;2022-12-10T09:16:05;-0.81;99.99
71096;DHT22;58753;49.440;11.126;2022-12-10T09:18:30;-0.83;99.99
71096;DHT22;58753;49.440;11.126;2022-12-10T09:20:56;-0.88;99.99
71096;DHT22;58753;49.440;11.126;2022-12-10T09:23:22;-0.80;99.99
71096;DHT22;58753;49.440;11.126;2022-12-10T09:25:47;-0.70;99.99
71096;DHT22;58753;49.440;11.126;2022-12-10T09:28:12;-0.61;99.99
71096;DHT22;58753;49.440;11.126;2022-12-10T09:30:38;-0.50;99.99
71096;DHT22;58753;49.440;11.126;2022-12-10T09:33:03;-0.45;99.99
71096;DHT22;58753;49.440;11.126;2022-12-10T09:35:29;-0.51;99.99
71096;DHT22;58753;49.440;11.126;2022-12-10T09:37:54;-0.50;99.99
71096;DHT22;58753;49.440;11.126;2022-12-10T09:40:45;-0.53;99.99
71096;DHT22;58753;49.440;11.126;2022-12-10T09:43:21;-0.49;99.99
71096;DHT22;58753;49.440;11.126;2022-12-10T09:46:08;-0.45;99.99
71096;DHT22;58753;49.440;11.126;2022-12-10T09:48:41;-0.37;99.99
71096;DHT22;58753;49.440;11.126;2022-12-10T09:53:46;-0.30;99.96
71096;DHT22;58753;49.440;11.126;2022-12-10T09:56:23;-0.34;99.57
71096;DHT22;58753;49.440;11.126;2022-12-10T09:58:49;-0.27;99.99
71096;DHT22;58753;49.440;11.126;2022-12-10T10:01:18;-0.26;99.79
71096;DHT22;58753;49.440;11.126;2022-12-10T10:03:44;-0.10;99.99
71096;DHT22;58753;49.440;11.126;2022-12-10T10:06:13;-0.09;99.99
71096;DHT22;58753;49.440;11.126;2022-12-10T10:08:45;0.07;99.99
71096;DHT22;58753;49.440;11.126;2022-12-10T10:11:16;0.04;99.87
71096;DHT22;58753;49.440;11.126;2022-12-10T10:13:49;0.10;99.74
71096;DHT22;58753;49.440;11.126;2022-12-10T10:16:23;0.10;99.73
71096;DHT22;58753;49.440;11.126;2022-12-10T10:21:21;0.00;99.81
71096;DHT22;58753;49.440;11.126;2022-12-10T10:23:48;-0.02;99.99
71096;DHT22;58753;49.440;11.126;2022-12-10T10:26:13;-0.05;99.99
71096;DHT22;58753;49.440;11.126;2022-12-10T10:28:40;-0.06;99.99
71096;DHT22;58753;49.440;11.126;2022-12-10T10:31:17;0.02;99.99
71096;DHT22;58753;49.440;11.126;2022-12-10T10:33:58;0.14;99.99
71096;DHT22;58753;49.440;11.126;2022-12-10T10:36:27;0.34;99.99
71096;DHT22;58753;49.440;11.126;2022-12-10T10:38:53;0.58;99.99
71096;DHT22;58753;49.440;11.126;2022-12-10T10:41:18;0.70;99.99
71096;DHT22;58753;49.440;11.126;2022-12-10T10:43:45;0.82;99.84
71096;DHT22;58753;49.440;11.126;2022-12-10T10:46:14;0.99;99.41
71096;DHT22;58753;49.440;11.126;2022-12-10T10:48:40;1.00;99.04
71096;DHT22;58753;49.440;11.126;2022-12-10T10:53:45;1.01;98.58
71096;DHT22;58753;49.440;11.126;2022-12-10T10:56:40;1.03;98.47
71096;DHT22;58753;49.440;11.126;2022-12-10T10:59:26;0.95;98.66
71096;DHT22;58753;49.440;11.126;2022-12-10T11:01:56;0.85;98.62
71096;DHT22;58753;49.440;11.126;2022-12-10T11:04:38;0.86;98.94
71096;DHT22;58753;49.440;11.126;2022-12-10T11:07:22;1.01;99.74
71096;DHT22;58753;49.440;11.126;2022-12-10T11:09:48;1.06;99.68
71096;DHT22;58753;49.440;11.126;2022-12-10T11:12:44;1.08;99.32
71096;DHT22;58753;49.440;11.126;2022-12-10T11:17:52;1.33;99.66
71096;DHT22;58753;49.440;11.126;2022-12-10T11:20:21;1.60;99.99
71096;DHT22;58753;49.440;11.126;2022-12-10T11:22:53;2.01;99.82
71096;DHT22;58753;49.440;11.126;2022-12-10T11:25:27;1.94;98.35
71096;DHT22;58753;49.440;11.126;2022-12-10T11:28:04;1.69;98.27
71096;DHT22;58753;49.440;11.126;2022-12-10T11:30:32;1.57;98.58
71096;DHT22;58753;49.440;11.126;2022-12-10T11:33:14;1.40;98.62
71096;DHT22;58753;49.440;11.126;2022-12-10T11:55:10;1.13;98.91
71096;DHT22;58753;49.440;11.126;2022-12-10T11:57:46;1.15;99.02
71096;DHT22;58753;49.440;11.126;2022-12-10T12:00:25;1.10;99.33
71096;DHT22;58753;49.440;11.126;2022-12-10T12:03:07;1.16;99.65
71096;DHT22;58753;49.440;11.126;2022-12-10T12:11:59;1.08;97.96
71096;DHT22;58753;49.440;11.126;2022-12-10T12:14:07;1.06;98.15
71096;DHT22;58753;49.440;11.126;2022-12-10T12:19:25;0.97;98.53
71096;DHT22;58753;49.440;11.126;2022-12-10T12:21:52;0.93;98.88
71096;DHT22;58753;49.440;11.126;2022-12-10T12:24:45;0.83;98.49
71096;DHT22;58753;49.440;11.126;2022-12-10T12:27:27;0.85;98.90
71096;DHT22;58753;49.440;11.126;2022-12-10T12:35:06;0.79;99.73
71096;DHT22;58753;49.440;11.126;2022-12-10T12:37:50;0.85;99.51
71096;DHT22;58753;49.440;11.126;2022-12-10T12:40:33;0.83;99.37
71096;DHT22;58753;49.440;11.126;2022-12-10T12:43:03;0.79;98.98
71096;DHT22;58753;49.440;11.126;2022-12-10T12:45:41;0.79;99.50
71096;DHT22;58753;49.440;11.126;2022-12-10T12:50:49;0.82;99.45
71096;DHT22;58753;49.440;11.126;2022-12-10T12:53:21;0.82;99.33
71096;DHT22;58753;49.440;11.126;2022-12-10T12:58:34;0.68;98.99
71096;DHT22;58753;49.440;11.126;2022-12-10T13:03:40;0.65;99.36
71096;DHT22;58753;49.440;11.126;2022-12-10T13:06:19;0.65;98.88
71096;DHT22;58753;49.440;11.126;2022-12-10T13:11:43;0.48;99.30
71096;DHT22;58753;49.440;11.126;2022-12-10T13:22:08;0.44;99.90
71096;DHT22;58753;49.440;11.126;2022-12-10T13:27:32;0.42;99.69
71096;DHT22;58753;49.440;11.126;2022-12-10T13:30:26;0.44;99.99
71096;DHT22;58753;49.440;11.126;2022-12-10T13:32:53;0.41;99.99
71096;DHT22;58753;49.440;11.126;2022-12-10T13:35:31;0.46;99.97
71096;DHT22;58753;49.440;11.126;2022-12-10T13:38:17;0.49;99.88
71096;DHT22;58753;49.440;11.126;2022-12-10T13:40:43;0.52;99.99
71096;DHT22;58753;49.440;11.126;2022-12-10T13:43:55;0.42;99.55
71096;DHT22;58753;49.440;11.126;2022-12-10T13:52:18;0.44;99.77
71096;DHT22;58753;49.440;11.126;2022-12-10T14:00:14;0.55;99.99
71096;DHT22;58753;49.440;11.126;2022-12-10T14:05:27;0.51;99.90
71096;DHT22;58753;49.440;11.126;2022-12-10T14:07:59;0.52;99.99
71096;DHT22;58753;49.440;11.126;2022-12-10T14:10:31;0.52;99.99
71096;DHT22;58753;49.440;11.126;2022-12-10T14:12:58;0.48;99.99
71096;DHT22;58753;49.440;11.126;2022-12-10T14:15:25;0.44;99.99
71096;DHT22;58753;49.440;11.126;2022-12-10T14:18:00;0.46;99.99
71096;DHT22;58753;49.440;11.126;2022-12-10T14:20:30;0.51;99.99
71096;DHT22;58753;49.440;11.126;2022-12-10T14:22:56;0.49;99.99
71096;DHT22;58753;49.440;11.126;2022-12-10T14:25:46;0.45;99.99
71096;DHT22;58753;49.440;11.126;2022-12-10T14:28:16;0.49;99.99
71096;DHT22;58753;49.440;11.126;2022-12-10T14:30:45;0.46;99.99
71096;DHT22;58753;49.440;11.126;2022-12-10T14:33:15;0.46;99.99
71096;DHT22;58753;49.440;11.126;2022-12-10T14:35:43;0.46;99.96
71096;DHT22;58753;49.440;11.126;2022-12-10T14:38:21;0.45;99.99
71096;DHT22;58753;49.440;11.126;2022-12-10T14:40:48;0.48;99.99
71096;DHT22;58753;49.440;11.126;2022-12-10T14:43:20;0.46;99.99
71096;DHT22;58753;49.440;11.126;2022-12-10T14:45:57;0.46;99.99
71096;DHT22;58753;49.440;11.126;2022-12-10T14:48:23;0.46;99.99
71096;DHT22;58753;49.440;11.126;2022-12-10T14:50:49;0.44;99.99
71096;DHT22;58753;49.440;11.126;2022-12-10T14:53:33;0.42;99.99
71096;DHT22;58753;49.440;11.126;2022-12-10T14:56:02;0.42;99.99
71096;DHT22;58753;49.440;11.126;2022-12-10T15:01:01;0.41;99.99
71096;DHT22;58753;49.440;11.126;2022-12-10T15:03:30;0.40;99.99
71096;DHT22;58753;49.440;11.126;2022-12-10T15:05:58;0.37;99.99
71096;DHT22;58753;49.440;11.126;2022-12-10T15:08:26;0.37;99.99
71096;DHT22;58753;49.440;11.126;2022-12-10T15:10:55;0.38;99.99
71096;DHT22;58753;49.440;11.126;2022-12-10T15:13:25;0.38;99.99
71096;DHT22;58753;49.440;11.126;2022-12-10T15:15:53;0.37;99.99
71096;DHT22;58753;49.440;11.126;2022-12-10T15:18:25;0.35;99.99
71096;DHT22;58753;49.440;11.126;2022-12-10T15:20:53;0.32;99.99
71096;DHT22;58753;49.440;11.126;2022-12-10T15:30:57;0.35;99.99
71096;DHT22;58753;49.440;11.126;2022-12-10T15:33:35;0.31;99.99
71096;DHT22;58753;49.440;11.126;2022-12-10T15:36:01;0.34;99.99
71096;DHT22;58753;49.440;11.126;2022-12-10T15:38:27;0.35;99.99
71096;DHT22;58753;49.440;11.126;2022-12-10T15:43:55;0.34;99.99
71096;DHT22;58753;49.440;11.126;2022-12-10T15:46:22;0.34;99.99
71096;DHT22;58753;49.440;11.126;2022-12-10T15:48:47;0.32;99.99
71096;DHT22;58753;49.440;11.126;2022-12-10T15:51:12;0.35;99.99
71096;DHT22;58753;49.440;11.126;2022-12-10T15:53:38;0.34;99.99
71096;DHT22;58753;49.440;11.126;2022-12-10T15:56:04;0.38;99.99
71096;DHT22;58753;49.440;11.126;2022-12-10T15:58:29;0.32;99.99
71096;DHT22;58753;49.440;11.126;2022-12-10T16:00:55;0.32;99.99
71096;DHT22;58753;49.440;11.126;2022-12-10T16:03:20;0.38;99.99
71096;DHT22;58753;49.440;11.126;2022-12-10T16:05:46;0.44;99.99
71096;DHT22;58753;49.440;11.126;2022-12-10T16:08:22;0.40;99.99
71096;DHT22;58753;49.440;11.126;2022-12-10T16:10:50;0.40;99.99
71096;DHT22;58753;49.440;11.126;2022-12-10T16:13:18;0.40;99.99
71096;DHT22;58753;49.440;11.126;2022-12-10T16:15:54;0.37;99.99
71096;DHT22;58753;49.440;11.126;2022-12-10T16:18:22;0.37;99.99
71096;DHT22;58753;49.440;11.126;2022-12-10T16:20:48;0.37;99.99
71096;DHT22;58753;49.440;11.126;2022-12-10T16:23:13;0.32;99.98
71096;DHT22;58753;49.440;11.126;2022-12-10T16:25:40;0.34;99.99
71096;DHT22;58753;49.440;11.126;2022-12-10T16:28:12;0.31;99.99
71096;DHT22;58753;49.440;11.126;2022-12-10T16:30:42;0.31;99.99
71096;DHT22;58753;49.440;11.126;2022-12-10T16:33:08;0.29;99.87
71096;DHT22;58753;49.440;11.126;2022-12-10T16:35:33;0.26;99.67
71096;DHT22;58753;49.440;11.126;2022-12-10T16:37:59;0.31;99.99
71096;DHT22;58753;49.440;11.126;2022-12-10T16:40:27;0.26;99.99
71096;DHT22;58753;49.440;11.126;2022-12-10T16:42:53;0.28;99.99
71096;DHT22;58753;49.440;11.126;2022-12-10T16:45:41;0.25;99.98
71096;DHT22;58753;49.440;11.126;2022-12-10T16:48:05;0.26;99.99
71096;DHT22;58753;49.440;11.126;2022-12-10T16:50:31;0.25;99.81
71096;DHT22;58753;49.440;11.126;2022-12-10T16:52:57;0.22;99.59
71096;DHT22;58753;49.440;11.126;2022-12-10T16:55:25;0.19;99.75
71096;DHT22;58753;49.440;11.126;2022-12-10T16:57:52;0.21;99.79
71096;DHT22;58753;49.440;11.126;2022-12-10T17:00:23;0.21;99.79
71096;DHT22;58753;49.440;11.126;2022-12-10T17:02:50;0.15;99.89
71096;DHT22;58753;49.440;11.126;2022-12-10T17:05:26;0.14;99.99
71096;DHT22;58753;49.440;11.126;2022-12-10T17:07:53;0.15;99.90
71096;DHT22;58753;49.440;11.126;2022-12-10T17:10:18;0.14;99.72
71096;DHT22;58753;49.440;11.126;2022-12-10T17:13:04;0.14;99.63
71096;DHT22;58753;49.440;11.126;2022-12-10T17:15:29;0.11;99.87
71096;DHT22;58753;49.440;11.126;2022-12-10T17:17:55;0.08;99.85
71096;DHT22;58753;49.440;11.126;2022-12-10T17:20:20;0.04;99.75
71096;DHT22;58753;49.440;11.126;2022-12-10T17:22:46;0.04;99.78
71096;DHT22;58753;49.440;11.126;2022-12-10T17:25:11;0.02;99.98
71096;DHT22;58753;49.440;11.126;2022-12-10T17:27:37;-0.03;99.90